createdAt,value
2023-07-18T00:00:48.207Z,19.94
2023-07-18T00:03:16.578Z,19.83
2023-07-18T00:05:43.490Z,19.81
2023-07-18T00:08:10.294Z,19.85
2023-07-18T00:10:36.768Z,19.82
2023-07-18T00:13:04.154Z,19.78
2023-07-18T00:15:30.629Z,19.67
2023-07-18T00:17:57.130Z,19.56
2023-07-18T00:20:24.508Z,19.46
2023-07-18T00:22:51.465Z,19.41
2023-07-18T00:25:20.567Z,19.41
2023-07-18T00:27:48.861Z,19.45
2023-07-18T00:30:15.327Z,19.46
2023-07-18T00:32:43.446Z,19.51
2023-07-18T00:35:10.222Z,19.53
2023-07-18T00:37:36.908Z,19.52
2023-07-18T00:40:04.066Z,19.52
2023-07-18T00:42:30.638Z,19.50
2023-07-18T00:44:57.359Z,19.48
2023-07-18T00:47:23.930Z,19.41
2023-07-18T00:49:51.659Z,19.38
2023-07-18T00:52:18.439Z,19.33
2023-07-18T00:54:45.594Z,19.28
2023-07-18T00:57:12.714Z,19.21
2023-07-18T00:59:39.458Z,19.19
2023-07-18T01:02:10.340Z,19.15
2023-07-18T01:04:37.961Z,19.13
2023-07-18T01:07:06.240Z,18.99
2023-07-18T01:09:32.836Z,18.82
2023-07-18T01:11:59.306Z,18.73
2023-07-18T01:14:27.035Z,18.76
2023-07-18T01:16:54.302Z,18.80
2023-07-18T01:19:21.016Z,18.82
2023-07-18T01:21:47.728Z,18.85
2023-07-18T01:24:14.222Z,18.89
2023-07-18T01:26:40.659Z,18.88
2023-07-18T01:29:07.059Z,18.85
2023-07-18T01:31:33.504Z,18.89
2023-07-18T01:34:00.055Z,18.86
2023-07-18T01:36:29.650Z,18.79
2023-07-18T01:38:56.157Z,18.77
2023-07-18T01:41:22.636Z,18.76
2023-07-18T01:43:49.066Z,18.76
2023-07-18T01:46:15.759Z,18.73
2023-07-18T01:48:42.254Z,18.73
2023-07-18T01:51:08.784Z,18.70
2023-07-18T01:53:35.260Z,18.69
2023-07-18T01:56:01.716Z,18.62
2023-07-18T01:58:28.188Z,18.65
2023-07-18T02:00:54.751Z,18.62
2023-07-18T02:03:21.334Z,18.59
2023-07-18T02:05:48.506Z,18.56
2023-07-18T02:08:14.976Z,18.51
2023-07-18T02:10:41.414Z,18.50
2023-07-18T02:13:07.824Z,18.49
2023-07-18T02:15:34.646Z,18.47
2023-07-18T02:18:01.170Z,18.44
2023-07-18T02:20:28.298Z,18.41
2023-07-18T02:22:57.128Z,18.39
2023-07-18T02:25:23.757Z,18.36
2023-07-18T02:27:50.489Z,18.30
2023-07-18T02:30:18.031Z,18.34
2023-07-18T02:32:45.614Z,18.35
2023-07-18T02:35:19.439Z,18.31
2023-07-18T02:37:46.727Z,18.28
2023-07-18T02:40:15.743Z,18.15
2023-07-18T02:42:42.187Z,18.07
2023-07-18T02:45:11.614Z,17.95
2023-07-18T02:47:40.479Z,17.95
2023-07-18T02:50:08.115Z,17.97
2023-07-18T02:52:34.868Z,17.97
2023-07-18T02:55:01.930Z,17.96
2023-07-18T02:57:28.652Z,17.97
2023-07-18T02:59:55.101Z,17.96
2023-07-18T03:02:21.962Z,17.93
2023-07-18T03:04:48.852Z,17.93
2023-07-18T03:07:18.738Z,17.90
2023-07-18T03:09:46.444Z,17.81
2023-07-18T03:12:14.244Z,17.79
2023-07-18T03:14:40.906Z,17.81
2023-07-18T03:17:07.463Z,17.81
2023-07-18T03:19:34.023Z,17.79
2023-07-18T03:22:00.616Z,17.75
2023-07-18T03:24:27.084Z,17.70
2023-07-18T03:26:53.802Z,17.68
2023-07-18T03:29:21.090Z,17.69
2023-07-18T03:31:47.728Z,17.68
2023-07-18T03:34:14.295Z,17.69
2023-07-18T03:36:40.937Z,17.70
2023-07-18T03:39:07.420Z,17.67
2023-07-18T03:41:33.862Z,17.65
2023-07-18T03:44:01.153Z,17.60
2023-07-18T03:46:27.630Z,17.58
2023-07-18T03:48:54.350Z,17.47
2023-07-18T03:51:22.399Z,17.38
2023-07-18T03:53:53.812Z,17.39
2023-07-18T03:56:21.707Z,17.35
2023-07-18T03:58:48.292Z,17.35
2023-07-18T04:01:14.806Z,17.34
2023-07-18T04:03:42.627Z,17.29
2023-07-18T04:06:09.963Z,17.31
2023-07-18T04:08:36.508Z,17.25
2023-07-18T04:11:03.097Z,17.16
2023-07-18T04:13:29.583Z,17.17
2023-07-18T04:15:56.992Z,17.20
2023-07-18T04:18:23.962Z,17.26
2023-07-18T04:20:50.717Z,17.23
2023-07-18T04:23:18.237Z,17.26
2023-07-18T04:26:01.108Z,17.31
2023-07-18T04:28:29.483Z,17.39
2023-07-18T04:30:56.281Z,17.45
2023-07-18T04:33:22.952Z,17.51
2023-07-18T04:35:49.527Z,17.49
2023-07-18T04:38:16.188Z,17.41
2023-07-18T04:40:43.005Z,17.38
2023-07-18T04:43:10.061Z,17.39
2023-07-18T04:45:46.984Z,17.49
2023-07-18T04:48:17.874Z,17.59
2023-07-18T04:50:46.185Z,17.68
2023-07-18T04:53:12.894Z,17.76
2023-07-18T04:55:40.353Z,17.83
2023-07-18T04:58:08.595Z,17.85
2023-07-18T05:00:36.256Z,17.94
2023-07-18T05:03:02.865Z,17.95
2023-07-18T05:05:30.297Z,17.87
2023-07-18T05:07:59.632Z,17.95
2023-07-18T05:10:26.338Z,18.18
2023-07-18T05:12:54.471Z,18.34
2023-07-18T05:15:21.630Z,18.49
2023-07-18T05:17:48.595Z,18.60
2023-07-18T05:20:16.094Z,18.77
2023-07-18T05:22:44.364Z,18.92
2023-07-18T05:25:13.262Z,19.00
2023-07-18T05:27:40.968Z,18.89
2023-07-18T05:30:13.359Z,19.00
2023-07-18T05:32:40.841Z,19.14
2023-07-18T05:35:10.690Z,19.34
2023-07-18T05:37:37.738Z,19.43
2023-07-18T05:40:04.715Z,19.47
2023-07-18T05:42:31.783Z,19.47
2023-07-18T05:44:58.471Z,19.56
2023-07-18T05:47:25.031Z,19.66
2023-07-18T05:49:51.545Z,19.81
2023-07-18T05:52:17.954Z,20.00
2023-07-18T05:54:46.182Z,20.16
2023-07-18T05:57:12.675Z,20.26
2023-07-18T05:59:39.150Z,20.32
2023-07-18T06:02:06.239Z,20.40
2023-07-18T06:04:32.826Z,20.46
2023-07-18T06:06:59.329Z,20.68
2023-07-18T06:09:25.912Z,20.83
2023-07-18T06:11:53.729Z,20.86
2023-07-18T06:14:20.815Z,20.97
2023-07-18T06:16:47.937Z,21.09
2023-07-18T06:19:15.025Z,21.26
2023-07-18T06:21:41.472Z,21.28
2023-07-18T06:24:18.021Z,21.44
2023-07-18T06:26:50.885Z,21.35
2023-07-18T06:29:19.495Z,21.25
2023-07-18T06:31:47.088Z,21.22
2023-07-18T06:34:13.720Z,21.47
2023-07-18T06:36:40.462Z,21.67
2023-07-18T06:39:07.047Z,21.93
2023-07-18T06:41:34.392Z,22.10
2023-07-18T06:44:01.110Z,22.03
2023-07-18T06:46:27.753Z,21.96
2023-07-18T06:48:54.174Z,22.12
2023-07-18T06:51:20.913Z,22.24
2023-07-18T06:53:47.635Z,22.22
2023-07-18T06:56:14.090Z,22.21
2023-07-18T06:58:40.661Z,22.26
2023-07-18T07:01:07.274Z,22.41
2023-07-18T07:03:34.035Z,22.52
2023-07-18T07:06:00.624Z,22.58
2023-07-18T07:08:27.144Z,22.69
2023-07-18T07:11:05.367Z,22.66
2023-07-18T07:13:32.222Z,22.76
2023-07-18T07:15:58.797Z,22.97
2023-07-18T07:18:25.381Z,23.08
2023-07-18T07:20:52.279Z,23.09
2023-07-18T07:23:18.786Z,23.23
2023-07-18T07:25:45.346Z,23.31
2023-07-18T07:28:11.840Z,23.37
2023-07-18T07:30:38.409Z,23.37
2023-07-18T07:33:07.727Z,23.54
2023-07-18T07:35:34.409Z,23.67
2023-07-18T07:38:00.926Z,23.83
2023-07-18T07:40:27.436Z,23.84
2023-07-18T07:42:53.952Z,23.81
2023-07-18T07:45:22.137Z,23.84
2023-07-18T07:47:49.151Z,23.90
2023-07-18T07:50:16.174Z,24.07
2023-07-18T07:52:42.675Z,24.29
2023-07-18T07:55:12.659Z,24.41
2023-07-18T07:57:39.774Z,24.54
2023-07-18T08:00:08.184Z,24.54
2023-07-18T08:02:35.402Z,24.47
2023-07-18T08:05:02.130Z,24.47
2023-07-18T08:07:28.664Z,24.68
2023-07-18T08:09:56.082Z,24.82
2023-07-18T08:12:22.873Z,24.94
2023-07-18T08:14:50.133Z,25.02
2023-07-18T08:17:18.143Z,25.16
2023-07-18T08:19:45.025Z,25.17
2023-07-18T08:22:11.779Z,25.10
2023-07-18T08:24:39.097Z,25.17
2023-07-18T08:27:06.147Z,25.30
2023-07-18T08:29:34.756Z,25.44
2023-07-18T08:32:01.362Z,25.50
2023-07-18T08:34:28.284Z,25.53
2023-07-18T08:36:54.811Z,25.72
2023-07-18T08:39:21.499Z,25.88
2023-07-18T08:42:36.414Z,25.90
2023-07-18T08:49:36.731Z,26.08
2023-07-18T08:52:44.721Z,26.17
2023-07-18T08:58:26.320Z,26.32
2023-07-18T09:08:20.639Z,26.71
2023-07-18T09:14:34.476Z,26.85
2023-07-18T09:32:09.398Z,26.93
2023-07-18T09:34:47.799Z,26.90
2023-07-18T09:41:33.479Z,26.90
2023-07-18T09:44:27.563Z,27.00
2023-07-18T09:46:50.709Z,27.20
2023-07-18T09:49:20.958Z,27.17
2023-07-18T09:52:05.129Z,27.35
2023-07-18T09:54:35.259Z,27.50
2023-07-18T09:57:12.234Z,27.45
2023-07-18T09:59:40.621Z,27.58
2023-07-18T10:02:10.404Z,27.70
2023-07-18T10:04:37.916Z,27.75
2023-07-18T10:07:05.248Z,27.35
2023-07-18T10:09:33.884Z,26.93
2023-07-18T10:12:03.235Z,26.70
2023-07-18T10:14:54.141Z,26.49
2023-07-18T10:17:37.654Z,26.27
2023-07-18T10:20:11.470Z,26.16
2023-07-18T10:22:38.461Z,26.08
2023-07-18T10:25:09.200Z,25.99
2023-07-18T10:27:44.733Z,25.82
2023-07-18T10:30:19.428Z,25.75
2023-07-18T10:32:54.663Z,25.68
2023-07-18T10:35:23.974Z,25.58
2023-07-18T10:37:58.449Z,25.52
2023-07-18T10:40:45.830Z,25.52
2023-07-18T10:43:19.534Z,25.55
2023-07-18T10:45:46.437Z,25.62
2023-07-18T10:48:22.279Z,25.67
2023-07-18T10:50:49.909Z,25.90
2023-07-18T10:53:19.499Z,26.09
2023-07-18T10:55:47.321Z,26.18
2023-07-18T10:58:21.621Z,26.21
2023-07-18T11:00:50.513Z,26.15
2023-07-18T11:03:36.229Z,26.26
2023-07-18T11:06:06.040Z,26.42
2023-07-18T11:08:33.463Z,26.47
2023-07-18T11:11:05.383Z,26.49
2023-07-18T11:13:37.379Z,26.38
2023-07-18T11:16:12.694Z,26.35
2023-07-18T11:18:51.838Z,26.16
2023-07-18T11:21:19.380Z,25.93
2023-07-18T11:23:47.526Z,25.70
2023-07-18T11:26:15.361Z,25.52
2023-07-18T11:28:43.436Z,25.41
2023-07-18T11:31:41.131Z,25.33
2023-07-18T11:34:10.367Z,25.33
2023-07-18T11:36:38.517Z,25.31
2023-07-18T11:39:20.660Z,25.30
2023-07-18T12:04:07.763Z,25.57
2023-07-18T12:06:48.093Z,25.81
2023-07-18T12:10:13.647Z,26.02
2023-07-18T12:12:42.120Z,26.22
2023-07-18T12:19:06.019Z,26.33
2023-07-18T12:21:42.692Z,26.38
2023-07-18T12:24:21.922Z,26.50
2023-07-18T12:29:38.247Z,26.55
2023-07-18T12:39:10.433Z,27.04
2023-07-18T12:41:33.610Z,27.17
2023-07-18T12:44:00.038Z,27.19
2023-07-18T12:46:28.168Z,27.27
2023-07-18T12:49:03.502Z,27.36
2023-07-18T12:51:31.222Z,27.44
2023-07-18T12:53:57.670Z,27.54
2023-07-18T12:56:24.268Z,27.57
2023-07-18T12:58:50.815Z,27.66
2023-07-18T13:01:18.115Z,27.64
2023-07-18T13:03:44.860Z,27.46
2023-07-18T13:06:11.410Z,27.29
2023-07-18T13:08:38.002Z,27.17
2023-07-18T13:11:05.218Z,27.23
2023-07-18T13:13:31.658Z,27.34
2023-07-18T13:15:58.190Z,27.34
2023-07-18T13:18:24.688Z,27.30
2023-07-18T13:20:51.349Z,27.23
2023-07-18T13:23:17.813Z,27.16
2023-07-18T13:25:44.325Z,27.10
2023-07-18T13:28:10.743Z,27.07
2023-07-18T13:30:40.377Z,27.08
2023-07-18T13:33:08.872Z,27.23
2023-07-18T13:35:35.613Z,27.39
2023-07-18T13:38:02.116Z,27.51
2023-07-18T13:40:28.683Z,27.72
2023-07-18T13:46:44.180Z,28.30
2023-07-18T14:00:54.517Z,28.59
2023-07-18T14:25:45.911Z,27.80
2023-07-18T14:42:35.282Z,27.59
2023-07-18T14:45:02.120Z,27.80
2023-07-18T14:47:29.294Z,28.10
2023-07-18T14:49:57.566Z,28.38
2023-07-18T14:52:24.142Z,28.58
2023-07-18T14:54:51.948Z,28.67
2023-07-18T14:57:18.799Z,28.74
2023-07-18T14:59:45.310Z,28.67
2023-07-18T15:02:11.893Z,28.64
2023-07-18T15:04:38.455Z,28.57
2023-07-18T15:07:04.962Z,28.48
2023-07-18T15:09:31.426Z,28.48
2023-07-18T15:11:57.842Z,28.55
2023-07-18T15:14:24.385Z,28.65
2023-07-18T15:16:50.923Z,28.70
2023-07-18T15:19:17.659Z,28.87
2023-07-18T15:21:44.256Z,29.13
2023-07-18T15:24:10.733Z,29.24
2023-07-18T15:26:37.696Z,29.46
2023-07-18T15:29:05.070Z,29.74
2023-07-18T15:31:31.628Z,29.90
2023-07-18T15:33:58.206Z,29.94
2023-07-18T15:36:24.958Z,29.91
2023-07-18T15:38:51.700Z,29.84
2023-07-18T15:41:18.501Z,29.74
2023-07-18T15:43:44.979Z,29.84
2023-07-18T15:46:11.681Z,29.96
2023-07-18T15:48:39.258Z,29.99
2023-07-18T15:51:06.130Z,29.91
2023-07-18T15:53:33.629Z,30.07
2023-07-18T15:56:00.088Z,30.09
2023-07-18T15:58:26.552Z,30.19
2023-07-18T16:00:54.112Z,30.13
2023-07-18T16:03:20.604Z,30.12
2023-07-18T16:05:47.155Z,30.13
2023-07-18T16:08:13.662Z,30.15
2023-07-18T16:10:40.084Z,30.18
2023-07-18T16:13:06.531Z,29.86
2023-07-18T16:15:33.430Z,29.67
2023-07-18T16:18:04.257Z,29.76
2023-07-18T16:20:32.919Z,29.94
2023-07-18T16:22:59.748Z,30.23
2023-07-18T16:25:26.417Z,30.55
2023-07-18T16:27:52.869Z,31.09
2023-07-18T16:30:19.591Z,31.57
2023-07-18T16:32:46.200Z,31.73
2023-07-18T16:35:12.887Z,32.09
2023-07-18T16:37:39.324Z,32.55
2023-07-18T16:40:06.767Z,32.59
2023-07-18T16:42:33.192Z,31.87
2023-07-18T16:44:59.623Z,31.16
2023-07-18T16:47:26.069Z,30.76
2023-07-18T16:49:52.725Z,30.48
2023-07-18T16:52:19.221Z,29.95
2023-07-18T16:54:46.496Z,29.47
2023-07-18T16:57:14.712Z,29.14
2023-07-18T16:59:41.242Z,28.79
2023-07-18T17:02:07.714Z,28.55
2023-07-18T17:04:34.207Z,28.33
2023-07-18T17:07:00.850Z,28.20
2023-07-18T17:09:27.436Z,28.08
2023-07-18T17:11:53.926Z,28.04
2023-07-18T17:14:20.430Z,27.94
2023-07-18T17:16:47.051Z,27.84
2023-07-18T17:19:13.482Z,27.69
2023-07-18T17:21:39.945Z,27.64
2023-07-18T17:24:06.540Z,27.55
2023-07-18T17:26:33.347Z,27.44
2023-07-18T17:28:59.937Z,27.37
2023-07-18T17:31:26.719Z,27.26
2023-07-18T17:33:53.340Z,27.18
2023-07-18T17:36:20.254Z,27.10
2023-07-18T17:38:46.861Z,27.05
2023-07-18T17:41:13.413Z,27.01
2023-07-18T17:43:39.846Z,26.91
2023-07-18T17:46:06.360Z,26.85
2023-07-18T17:48:33.193Z,26.81
2023-07-18T17:50:59.628Z,26.81
2023-07-18T17:53:26.073Z,26.81
2023-07-18T17:55:52.527Z,26.73
2023-07-18T17:58:19.112Z,26.60
2023-07-18T18:00:45.758Z,26.58
2023-07-18T18:03:12.686Z,26.60
2023-07-18T18:05:47.613Z,26.63
2023-07-18T18:08:16.204Z,26.60
2023-07-18T18:10:47.003Z,26.59
2023-07-18T18:13:14.823Z,26.53
2023-07-18T18:15:52.608Z,26.44
2023-07-18T18:18:26.320Z,26.34
2023-07-18T18:20:52.885Z,26.26
2023-07-18T18:23:27.887Z,26.21
2023-07-18T18:26:05.080Z,26.19
2023-07-18T18:28:32.861Z,26.16
2023-07-18T18:30:59.603Z,26.13
2023-07-18T18:33:26.092Z,26.09
2023-07-18T18:35:53.254Z,26.08
2023-07-18T18:38:19.767Z,26.02
2023-07-18T18:40:49.277Z,25.98
2023-07-18T18:43:15.977Z,25.88
2023-07-18T18:45:42.528Z,25.80
2023-07-18T18:48:12.297Z,25.74
2023-07-18T18:50:41.700Z,25.72
2023-07-18T18:53:08.529Z,25.69
2023-07-18T18:55:35.463Z,25.68
2023-07-18T18:58:01.982Z,25.68
2023-07-18T19:00:29.093Z,25.61
2023-07-18T19:02:58.188Z,25.45
2023-07-18T19:05:24.986Z,25.22
2023-07-18T19:07:51.778Z,25.10
2023-07-18T19:10:18.269Z,25.00
2023-07-18T19:12:44.694Z,24.88
2023-07-18T19:15:11.541Z,24.75
2023-07-18T19:17:38.132Z,24.65
2023-07-18T19:20:05.128Z,24.55
2023-07-18T19:22:31.815Z,24.39
2023-07-18T19:24:58.286Z,24.19
2023-07-18T19:27:24.859Z,24.03
2023-07-18T19:29:52.046Z,23.81
2023-07-18T19:32:18.664Z,23.61
2023-07-18T19:34:46.348Z,23.52
2023-07-18T19:37:13.495Z,23.47
2023-07-18T19:39:40.048Z,23.48
2023-07-18T19:42:07.034Z,23.42
2023-07-18T19:44:35.165Z,23.37
2023-07-18T19:47:01.673Z,23.32
2023-07-18T19:49:29.483Z,23.26
2023-07-18T19:51:57.833Z,23.16
2023-07-18T19:54:28.056Z,23.16
2023-07-18T19:56:55.234Z,23.22
2023-07-18T19:59:21.826Z,23.25
2023-07-18T20:01:48.483Z,23.29
2023-07-18T20:04:15.176Z,23.25
2023-07-18T20:06:41.756Z,23.20
2023-07-18T20:09:08.541Z,23.12
2023-07-18T20:11:35.011Z,23.03
2023-07-18T20:14:02.013Z,23.00
2023-07-18T20:16:28.570Z,22.94
2023-07-18T20:19:01.637Z,22.89
2023-07-18T20:21:28.939Z,22.84
2023-07-18T20:23:55.607Z,22.80
2023-07-18T20:26:22.083Z,22.76
2023-07-18T20:28:48.745Z,22.72
2023-07-18T20:31:18.163Z,22.70
2023-07-18T20:33:45.011Z,22.68
2023-07-18T20:36:11.639Z,22.64
2023-07-18T20:38:38.124Z,22.65
2023-07-18T20:41:07.552Z,22.62
2023-07-18T20:43:36.078Z,22.61
2023-07-18T20:46:03.950Z,22.55
2023-07-18T20:48:33.495Z,22.59
2023-07-18T20:51:00.553Z,22.59
2023-07-18T20:53:28.398Z,22.56
2023-07-18T20:55:54.981Z,22.48
2023-07-18T20:58:21.561Z,22.50
2023-07-18T21:00:48.486Z,22.53
2023-07-18T21:03:15.166Z,22.57
2023-07-18T21:05:41.683Z,22.61
2023-07-18T21:08:08.167Z,22.59
2023-07-18T21:10:34.731Z,22.54
2023-07-18T21:13:03.256Z,22.47
2023-07-18T21:15:29.931Z,22.42
2023-07-18T21:17:56.526Z,22.37
2023-07-18T21:20:23.382Z,22.37
2023-07-18T21:22:50.008Z,22.41
2023-07-18T21:25:26.433Z,22.35
2023-07-18T21:28:01.727Z,22.33
2023-07-18T21:30:28.977Z,22.30
2023-07-18T21:32:55.578Z,22.28
2023-07-18T21:35:25.047Z,22.29
2023-07-18T21:37:51.967Z,22.28
2023-07-18T21:40:22.096Z,22.30
2023-07-18T21:42:51.281Z,22.29
2023-07-18T21:45:17.855Z,22.28
2023-07-18T21:47:45.721Z,22.24
2023-07-18T21:50:12.465Z,22.22
2023-07-18T21:52:38.979Z,22.16
2023-07-18T21:55:08.024Z,22.17
2023-07-18T21:57:34.541Z,22.11
2023-07-18T22:00:01.239Z,22.09
2023-07-18T22:02:34.706Z,22.05
2023-07-18T22:05:07.705Z,22.04
2023-07-18T22:07:34.326Z,21.97
2023-07-18T22:10:01.606Z,21.87
2023-07-18T22:12:28.060Z,21.77
2023-07-18T22:14:54.590Z,21.69
2023-07-18T22:17:21.233Z,21.68
2023-07-18T22:19:48.142Z,21.62
2023-07-18T22:22:15.434Z,21.57
2023-07-18T22:24:42.107Z,21.60
2023-07-18T22:27:08.628Z,21.65
2023-07-18T22:29:35.163Z,21.65
2023-07-18T22:32:01.793Z,21.67
2023-07-18T22:34:28.336Z,21.70
2023-07-18T22:36:54.801Z,21.70
2023-07-18T22:39:33.189Z,21.71
2023-07-18T22:42:18.808Z,21.70
2023-07-18T22:44:47.348Z,21.70
2023-07-18T22:47:15.008Z,21.72
2023-07-18T22:49:42.168Z,21.65
2023-07-18T22:52:09.890Z,21.63
2023-07-18T22:54:37.015Z,21.65
2023-07-18T22:57:04.589Z,21.66
2023-07-18T22:59:31.407Z,21.64
2023-07-18T23:01:58.004Z,21.60
2023-07-18T23:04:24.485Z,21.62
2023-07-18T23:06:50.938Z,21.63
2023-07-18T23:09:17.424Z,21.63
2023-07-18T23:11:43.832Z,21.63
2023-07-18T23:14:10.245Z,21.57
2023-07-18T23:16:36.708Z,21.55
2023-07-18T23:19:03.380Z,21.58
2023-07-18T23:21:32.651Z,21.58
2023-07-18T23:23:59.138Z,21.55
2023-07-18T23:26:25.709Z,21.54
2023-07-18T23:28:52.551Z,21.53
2023-07-18T23:31:19.369Z,21.46
2023-07-18T23:33:46.469Z,21.41
2023-07-18T23:36:13.444Z,21.32
2023-07-18T23:41:24.181Z,21.03
2023-07-18T23:43:50.663Z,20.94
2023-07-18T23:46:17.204Z,20.87
2023-07-18T23:48:46.054Z,20.81
2023-07-18T23:51:13.143Z,20.78
2023-07-18T23:53:39.610Z,20.81
2023-07-18T23:56:06.064Z,20.84
2023-07-18T23:58:32.721Z,20.87
